Log in  \/ 
x
x

Ramona Operations

Additional info
  • Operations Officer: Julie Keane
  • Phone Number: 760-703-1967
  • E-Mail: rnmops@plusoneflyers.org
Comments
  • No comments found

Leave your comments

0 Character restriction
Your text should be more than 10 characters
terms and condition.
Special Instructions

To access the field, press #### to call for entry.

Ramona Weather

[source: ADDS]
METAR
KRNM 200153Z 27009KT 10SM CLR 22/16 A2992 RMK AO2 SLP119 T02220161 $ =
KNKX 200155Z 29006KT 10SM CLR 21/15 A2991 RMK AO2 SLP124 T02110150 $ =
TAF
TAF KNKX 1921/2021 26008KT 9999 SCT015 QNH2989INS BECMG 2006/2008 VRB05KT 9999 OVC010 QNH2990INS BECMG 2018/2020 VRB06KT 9999 SCT015 QNH2990INS T26/1922Z T19/2013Z =
SR / SS: 13:14 / 02:26 UTC ( 2017-08-20)

Ramona Operations Map